sensor_id;sensor_type;location;lat;lon;timestamp;P1;durP1;ratioP1;P2;durP2;ratioP2
74152;SDS011;62505;46.070;14.492;2022-12-29T00:00:19;7.30;;;4.32;;
74152;SDS011;62505;46.070;14.492;2022-12-29T00:02:46;5.63;;;4.03;;
74152;SDS011;62505;46.070;14.492;2022-12-29T00:05:13;6.00;;;4.40;;
74152;SDS011;62505;46.070;14.492;2022-12-29T00:07:40;7.72;;;4.68;;
74152;SDS011;62505;46.070;14.492;2022-12-29T00:10:07;7.00;;;4.78;;
74152;SDS011;62505;46.070;14.492;2022-12-29T00:12:34;7.72;;;4.13;;
74152;SDS011;62505;46.070;14.492;2022-12-29T00:15:20;5.85;;;4.13;;
74152;SDS011;62505;46.070;14.492;2022-12-29T00:18:05;6.85;;;4.57;;
74152;SDS011;62505;46.070;14.492;2022-12-29T00:20:33;6.75;;;4.25;;
74152;SDS011;62505;46.070;14.492;2022-12-29T00:23:32;5.53;;;4.25;;
74152;SDS011;62505;46.070;14.492;2022-12-29T00:26:16;5.97;;;4.30;;
74152;SDS011;62505;46.070;14.492;2022-12-29T00:29:01;6.75;;;4.30;;
74152;SDS011;62505;46.070;14.492;2022-12-29T00:31:47;5.60;;;4.38;;
74152;SDS011;62505;46.070;14.492;2022-12-29T00:34:31;5.93;;;4.30;;
74152;SDS011;62505;46.070;14.492;2022-12-29T00:37:16;5.78;;;4.68;;
74152;SDS011;62505;46.070;14.492;2022-12-29T00:40:03;5.63;;;4.22;;
74152;SDS011;62505;46.070;14.492;2022-12-29T00:42:48;6.72;;;3.97;;
74152;SDS011;62505;46.070;14.492;2022-12-29T00:45:32;7.18;;;4.70;;
74152;SDS011;62505;46.070;14.492;2022-12-29T00:48:01;6.82;;;4.60;;
74152;SDS011;62505;46.070;14.492;2022-12-29T00:50:27;5.80;;;4.20;;
74152;SDS011;62505;46.070;14.492;2022-12-29T00:52:55;6.57;;;4.18;;
74152;SDS011;62505;46.070;14.492;2022-12-29T00:55:22;7.85;;;4.28;;
74152;SDS011;62505;46.070;14.492;2022-12-29T00:57:49;5.15;;;4.10;;
74152;SDS011;62505;46.070;14.492;2022-12-29T01:00:16;7.05;;;4.10;;
74152;SDS011;62505;46.070;14.492;2022-12-29T01:02:43;6.40;;;4.68;;
74152;SDS011;62505;46.070;14.492;2022-12-29T01:05:11;5.53;;;4.07;;
74152;SDS011;62505;46.070;14.492;2022-12-29T01:07:38;7.35;;;5.00;;
74152;SDS011;62505;46.070;14.492;2022-12-29T01:10:05;6.60;;;4.72;;
74152;SDS011;62505;46.070;14.492;2022-12-29T01:12:40;7.13;;;4.30;;
74152;SDS011;62505;46.070;14.492;2022-12-29T01:15:09;6.93;;;4.45;;
74152;SDS011;62505;46.070;14.492;2022-12-29T01:17:37;5.75;;;4.60;;
74152;SDS011;62505;46.070;14.492;2022-12-29T01:20:04;6.13;;;4.25;;
74152;SDS011;62505;46.070;14.492;2022-12-29T01:22:33;5.63;;;4.05;;
74152;SDS011;62505;46.070;14.492;2022-12-29T01:25:00;5.63;;;4.30;;
74152;SDS011;62505;46.070;14.492;2022-12-29T01:27:27;6.95;;;4.25;;
74152;SDS011;62505;46.070;14.492;2022-12-29T01:29:54;5.63;;;4.07;;
74152;SDS011;62505;46.070;14.492;2022-12-29T01:32:21;7.05;;;4.78;;
74152;SDS011;62505;46.070;14.492;2022-12-29T01:34:48;6.88;;;4.57;;
74152;SDS011;62505;46.070;14.492;2022-12-29T01:37:15;6.15;;;4.40;;
74152;SDS011;62505;46.070;14.492;2022-12-29T01:39:43;6.03;;;4.20;;
74152;SDS011;62505;46.070;14.492;2022-12-29T01:42:12;5.38;;;3.97;;
74152;SDS011;62505;46.070;14.492;2022-12-29T01:44:51;6.40;;;4.13;;
74152;SDS011;62505;46.070;14.492;2022-12-29T01:47:30;5.80;;;4.30;;
74152;SDS011;62505;46.070;14.492;2022-12-29T01:50:03;6.43;;;4.68;;
74152;SDS011;62505;46.070;14.492;2022-12-29T01:52:35;5.90;;;3.80;;
74152;SDS011;62505;46.070;14.492;2022-12-29T01:55:06;7.15;;;3.97;;
74152;SDS011;62505;46.070;14.492;2022-12-29T01:57:37;6.05;;;4.65;;
74152;SDS011;62505;46.070;14.492;2022-12-29T02:00:07;7.15;;;4.65;;
74152;SDS011;62505;46.070;14.492;2022-12-29T02:02:36;5.72;;;4.53;;
74152;SDS011;62505;46.070;14.492;2022-12-29T02:05:05;5.60;;;4.28;;
74152;SDS011;62505;46.070;14.492;2022-12-29T02:07:37;6.10;;;4.20;;
74152;SDS011;62505;46.070;14.492;2022-12-29T02:10:06;5.80;;;4.07;;
74152;SDS011;62505;46.070;14.492;2022-12-29T02:12:33;5.75;;;4.30;;
74152;SDS011;62505;46.070;14.492;2022-12-29T02:15:00;5.75;;;4.45;;
74152;SDS011;62505;46.070;14.492;2022-12-29T02:17:34;6.65;;;4.50;;
74152;SDS011;62505;46.070;14.492;2022-12-29T02:23:52;6.30;;;4.43;;
74152;SDS011;62505;46.070;14.492;2022-12-29T02:26:49;6.30;;;4.72;;
74152;SDS011;62505;46.070;14.492;2022-12-29T02:29:51;6.45;;;4.47;;
74152;SDS011;62505;46.070;14.492;2022-12-29T02:32:33;4.97;;;4.30;;
74152;SDS011;62505;46.070;14.492;2022-12-29T02:35:08;5.05;;;4.15;;
74152;SDS011;62505;46.070;14.492;2022-12-29T02:37:42;6.05;;;4.32;;
74152;SDS011;62505;46.070;14.492;2022-12-29T02:40:22;4.93;;;4.13;;
74152;SDS011;62505;46.070;14.492;2022-12-29T02:42:55;6.00;;;4.40;;
74152;SDS011;62505;46.070;14.492;2022-12-29T02:45:29;7.35;;;4.57;;
74152;SDS011;62505;46.070;14.492;2022-12-29T02:48:03;6.75;;;4.15;;
74152;SDS011;62505;46.070;14.492;2022-12-29T02:50:36;5.82;;;4.35;;
74152;SDS011;62505;46.070;14.492;2022-12-29T02:53:05;6.47;;;4.53;;
74152;SDS011;62505;46.070;14.492;2022-12-29T02:55:37;7.07;;;4.85;;
74152;SDS011;62505;46.070;14.492;2022-12-29T03:00:56;6.82;;;5.00;;
74152;SDS011;62505;46.070;14.492;2022-12-29T03:03:41;6.47;;;4.70;;
74152;SDS011;62505;46.070;14.492;2022-12-29T03:06:22;5.95;;;4.63;;
74152;SDS011;62505;46.070;14.492;2022-12-29T03:08:59;5.80;;;4.50;;
74152;SDS011;62505;46.070;14.492;2022-12-29T03:11:32;5.95;;;4.03;;
74152;SDS011;62505;46.070;14.492;2022-12-29T03:14:25;7.35;;;4.90;;
74152;SDS011;62505;46.070;14.492;2022-12-29T03:17:14;6.50;;;4.65;;
74152;SDS011;62505;46.070;14.492;2022-12-29T03:19:52;6.70;;;4.45;;
74152;SDS011;62505;46.070;14.492;2022-12-29T03:22:25;5.57;;;4.32;;
74152;SDS011;62505;46.070;14.492;2022-12-29T03:24:57;6.38;;;4.57;;
74152;SDS011;62505;46.070;14.492;2022-12-29T03:27:29;5.32;;;4.28;;
74152;SDS011;62505;46.070;14.492;2022-12-29T03:30:00;5.85;;;4.45;;
74152;SDS011;62505;46.070;14.492;2022-12-29T03:32:31;6.93;;;4.00;;
74152;SDS011;62505;46.070;14.492;2022-12-29T03:35:02;8.15;;;4.47;;
74152;SDS011;62505;46.070;14.492;2022-12-29T03:37:30;6.05;;;4.38;;
74152;SDS011;62505;46.070;14.492;2022-12-29T03:40:03;7.25;;;4.85;;
74152;SDS011;62505;46.070;14.492;2022-12-29T03:42:31;6.40;;;4.85;;
74152;SDS011;62505;46.070;14.492;2022-12-29T03:45:00;6.38;;;4.38;;
74152;SDS011;62505;46.070;14.492;2022-12-29T03:47:27;6.70;;;4.60;;
74152;SDS011;62505;46.070;14.492;2022-12-29T03:49:54;5.35;;;4.55;;
74152;SDS011;62505;46.070;14.492;2022-12-29T03:52:22;5.40;;;4.28;;
74152;SDS011;62505;46.070;14.492;2022-12-29T03:54:49;8.38;;;5.00;;
74152;SDS011;62505;46.070;14.492;2022-12-29T03:57:16;6.18;;;4.20;;
74152;SDS011;62505;46.070;14.492;2022-12-29T03:59:43;6.13;;;4.18;;
74152;SDS011;62505;46.070;14.492;2022-12-29T04:02:10;6.68;;;4.50;;
74152;SDS011;62505;46.070;14.492;2022-12-29T04:04:37;6.43;;;4.45;;
74152;SDS011;62505;46.070;14.492;2022-12-29T04:07:03;5.97;;;4.13;;
74152;SDS011;62505;46.070;14.492;2022-12-29T04:09:32;6.10;;;4.20;;
74152;SDS011;62505;46.070;14.492;2022-12-29T04:11:58;6.88;;;4.95;;
74152;SDS011;62505;46.070;14.492;2022-12-29T04:14:25;5.15;;;3.92;;
74152;SDS011;62505;46.070;14.492;2022-12-29T04:16:52;6.03;;;4.28;;
74152;SDS011;62505;46.070;14.492;2022-12-29T04:19:19;5.47;;;4.35;;
74152;SDS011;62505;46.070;14.492;2022-12-29T04:21:46;7.60;;;4.53;;
74152;SDS011;62505;46.070;14.492;2022-12-29T04:24:13;6.90;;;5.07;;
74152;SDS011;62505;46.070;14.492;2022-12-29T04:26:41;5.93;;;4.25;;
74152;SDS011;62505;46.070;14.492;2022-12-29T04:29:08;5.97;;;4.30;;
74152;SDS011;62505;46.070;14.492;2022-12-29T04:31:35;6.43;;;4.72;;
74152;SDS011;62505;46.070;14.492;2022-12-29T04:34:02;6.65;;;4.50;;
74152;SDS011;62505;46.070;14.492;2022-12-29T04:36:29;6.35;;;4.55;;
74152;SDS011;62505;46.070;14.492;2022-12-29T04:38:56;5.18;;;3.95;;
74152;SDS011;62505;46.070;14.492;2022-12-29T04:41:23;7.57;;;4.53;;
74152;SDS011;62505;46.070;14.492;2022-12-29T04:43:51;6.10;;;4.10;;
74152;SDS011;62505;46.070;14.492;2022-12-29T04:46:18;5.82;;;4.60;;
74152;SDS011;62505;46.070;14.492;2022-12-29T04:48:45;5.60;;;4.22;;
74152;SDS011;62505;46.070;14.492;2022-12-29T04:51:12;6.10;;;4.53;;
74152;SDS011;62505;46.070;14.492;2022-12-29T04:53:39;6.13;;;4.50;;
74152;SDS011;62505;46.070;14.492;2022-12-29T04:56:06;6.35;;;4.47;;
74152;SDS011;62505;46.070;14.492;2022-12-29T04:58:34;5.45;;;3.83;;
74152;SDS011;62505;46.070;14.492;2022-12-29T05:01:03;6.85;;;4.60;;
74152;SDS011;62505;46.070;14.492;2022-12-29T05:03:30;6.55;;;4.80;;
74152;SDS011;62505;46.070;14.492;2022-12-29T05:05:57;7.28;;;4.88;;
74152;SDS011;62505;46.070;14.492;2022-12-29T05:08:24;6.05;;;4.57;;
74152;SDS011;62505;46.070;14.492;2022-12-29T05:10:51;7.82;;;4.95;;
74152;SDS011;62505;46.070;14.492;2022-12-29T05:13:18;5.28;;;4.22;;
74152;SDS011;62505;46.070;14.492;2022-12-29T05:15:46;6.28;;;4.63;;
74152;SDS011;62505;46.070;14.492;2022-12-29T05:18:16;7.85;;;5.40;;
74152;SDS011;62505;46.070;14.492;2022-12-29T05:20:44;6.72;;;4.32;;
74152;SDS011;62505;46.070;14.492;2022-12-29T05:23:11;11.43;;;6.47;;
74152;SDS011;62505;46.070;14.492;2022-12-29T05:25:38;11.35;;;5.93;;
74152;SDS011;62505;46.070;14.492;2022-12-29T05:28:05;10.18;;;5.95;;
74152;SDS011;62505;46.070;14.492;2022-12-29T05:30:32;12.70;;;6.10;;
74152;SDS011;62505;46.070;14.492;2022-12-29T05:32:59;12.30;;;6.28;;
74152;SDS011;62505;46.070;14.492;2022-12-29T05:35:27;12.15;;;6.25;;
74152;SDS011;62505;46.070;14.492;2022-12-29T05:37:54;10.13;;;6.43;;
74152;SDS011;62505;46.070;14.492;2022-12-29T05:40:21;11.07;;;6.20;;
74152;SDS011;62505;46.070;14.492;2022-12-29T05:42:48;12.40;;;7.13;;
74152;SDS011;62505;46.070;14.492;2022-12-29T05:45:15;12.68;;;6.25;;
74152;SDS011;62505;46.070;14.492;2022-12-29T05:47:43;13.70;;;7.13;;
74152;SDS011;62505;46.070;14.492;2022-12-29T05:50:10;9.93;;;5.97;;
74152;SDS011;62505;46.070;14.492;2022-12-29T05:52:38;9.05;;;5.93;;
74152;SDS011;62505;46.070;14.492;2022-12-29T05:55:06;8.85;;;6.10;;
74152;SDS011;62505;46.070;14.492;2022-12-29T05:57:33;13.48;;;6.28;;
74152;SDS011;62505;46.070;14.492;2022-12-29T06:00:00;13.85;;;6.57;;
74152;SDS011;62505;46.070;14.492;2022-12-29T06:02:28;12.15;;;6.57;;
74152;SDS011;62505;46.070;14.492;2022-12-29T06:04:54;18.10;;;7.72;;
74152;SDS011;62505;46.070;14.492;2022-12-29T06:07:21;13.93;;;6.45;;
74152;SDS011;62505;46.070;14.492;2022-12-29T06:09:49;13.15;;;6.38;;
74152;SDS011;62505;46.070;14.492;2022-12-29T06:12:16;12.93;;;6.03;;
74152;SDS011;62505;46.070;14.492;2022-12-29T06:14:43;14.70;;;6.40;;
74152;SDS011;62505;46.070;14.492;2022-12-29T06:17:10;12.70;;;6.05;;
74152;SDS011;62505;46.070;14.492;2022-12-29T06:19:37;19.08;;;6.32;;
74152;SDS011;62505;46.070;14.492;2022-12-29T06:22:04;11.52;;;6.25;;
74152;SDS011;62505;46.070;14.492;2022-12-29T06:24:32;12.32;;;6.45;;
74152;SDS011;62505;46.070;14.492;2022-12-29T06:27:00;10.98;;;6.50;;
74152;SDS011;62505;46.070;14.492;2022-12-29T06:29:27;12.50;;;6.10;;
74152;SDS011;62505;46.070;14.492;2022-12-29T06:31:54;13.25;;;6.28;;
74152;SDS011;62505;46.070;14.492;2022-12-29T06:34:23;11.27;;;6.18;;
74152;SDS011;62505;46.070;14.492;2022-12-29T06:36:50;16.70;;;6.22;;
74152;SDS011;62505;46.070;14.492;2022-12-29T06:39:17;16.23;;;6.03;;
74152;SDS011;62505;46.070;14.492;2022-12-29T06:41:43;11.85;;;6.50;;
74152;SDS011;62505;46.070;14.492;2022-12-29T06:44:12;13.98;;;6.20;;
74152;SDS011;62505;46.070;14.492;2022-12-29T06:46:38;8.60;;;5.65;;
74152;SDS011;62505;46.070;14.492;2022-12-29T06:49:05;8.20;;;5.38;;
74152;SDS011;62505;46.070;14.492;2022-12-29T06:51:32;12.45;;;5.85;;
74152;SDS011;62505;46.070;14.492;2022-12-29T06:53:59;12.00;;;5.90;;
74152;SDS011;62505;46.070;14.492;2022-12-29T06:56:26;8.43;;;5.32;;
74152;SDS011;62505;46.070;14.492;2022-12-29T06:58:53;15.55;;;6.53;;
74152;SDS011;62505;46.070;14.492;2022-12-29T07:01:21;10.82;;;6.00;;
74152;SDS011;62505;46.070;14.492;2022-12-29T07:03:48;11.35;;;6.55;;
74152;SDS011;62505;46.070;14.492;2022-12-29T07:06:15;13.00;;;5.80;;
74152;SDS011;62505;46.070;14.492;2022-12-29T07:08:42;15.88;;;7.00;;
74152;SDS011;62505;46.070;14.492;2022-12-29T07:11:09;12.93;;;6.70;;
74152;SDS011;62505;46.070;14.492;2022-12-29T07:13:36;13.77;;;6.30;;
74152;SDS011;62505;46.070;14.492;2022-12-29T07:16:06;7.63;;;5.65;;
74152;SDS011;62505;46.070;14.492;2022-12-29T07:18:35;12.15;;;6.22;;
74152;SDS011;62505;46.070;14.492;2022-12-29T07:21:02;11.43;;;6.88;;
74152;SDS011;62505;46.070;14.492;2022-12-29T07:23:30;12.80;;;5.93;;
74152;SDS011;62505;46.070;14.492;2022-12-29T07:26:00;9.32;;;5.95;;
74152;SDS011;62505;46.070;14.492;2022-12-29T07:28:27;10.13;;;5.88;;
74152;SDS011;62505;46.070;14.492;2022-12-29T07:30:54;11.48;;;5.93;;
74152;SDS011;62505;46.070;14.492;2022-12-29T07:33:21;9.52;;;5.55;;
74152;SDS011;62505;46.070;14.492;2022-12-29T07:35:50;12.32;;;5.60;;
74152;SDS011;62505;46.070;14.492;2022-12-29T07:38:17;9.75;;;6.20;;
74152;SDS011;62505;46.070;14.492;2022-12-29T07:40:44;7.93;;;5.68;;
74152;SDS011;62505;46.070;14.492;2022-12-29T07:43:11;12.73;;;6.25;;
74152;SDS011;62505;46.070;14.492;2022-12-29T07:45:37;10.73;;;6.68;;
74152;SDS011;62505;46.070;14.492;2022-12-29T07:48:05;9.95;;;6.28;;
74152;SDS011;62505;46.070;14.492;2022-12-29T07:50:33;9.55;;;6.32;;
74152;SDS011;62505;46.070;14.492;2022-12-29T07:53:02;12.77;;;6.43;;
74152;SDS011;62505;46.070;14.492;2022-12-29T07:55:29;8.77;;;6.07;;
74152;SDS011;62505;46.070;14.492;2022-12-29T07:57:56;9.75;;;6.30;;
74152;SDS011;62505;46.070;14.492;2022-12-29T08:00:23;8.23;;;4.97;;
74152;SDS011;62505;46.070;14.492;2022-12-29T08:02:50;12.15;;;5.57;;
74152;SDS011;62505;46.070;14.492;2022-12-29T08:05:17;7.70;;;5.35;;
74152;SDS011;62505;46.070;14.492;2022-12-29T08:07:47;11.82;;;5.57;;
74152;SDS011;62505;46.070;14.492;2022-12-29T08:10:16;8.82;;;5.22;;
74152;SDS011;62505;46.070;14.492;2022-12-29T08:12:43;9.00;;;5.70;;
74152;SDS011;62505;46.070;14.492;2022-12-29T08:15:11;10.77;;;5.88;;
74152;SDS011;62505;46.070;14.492;2022-12-29T08:17:38;8.85;;;5.68;;
74152;SDS011;62505;46.070;14.492;2022-12-29T08:20:05;9.60;;;5.95;;
74152;SDS011;62505;46.070;14.492;2022-12-29T08:22:33;10.65;;;5.80;;
74152;SDS011;62505;46.070;14.492;2022-12-29T08:25:00;11.60;;;5.70;;
74152;SDS011;62505;46.070;14.492;2022-12-29T08:27:28;11.60;;;5.53;;
74152;SDS011;62505;46.070;14.492;2022-12-29T08:29:55;14.23;;;6.22;;
74152;SDS011;62505;46.070;14.492;2022-12-29T08:32:22;9.25;;;5.68;;
74152;SDS011;62505;46.070;14.492;2022-12-29T08:34:49;9.38;;;5.68;;
74152;SDS011;62505;46.070;14.492;2022-12-29T08:37:16;10.40;;;5.90;;
74152;SDS011;62505;46.070;14.492;2022-12-29T08:39:43;9.25;;;5.13;;
74152;SDS011;62505;46.070;14.492;2022-12-29T08:42:09;10.10;;;5.57;;
74152;SDS011;62505;46.070;14.492;2022-12-29T08:44:38;10.52;;;5.43;;
74152;SDS011;62505;46.070;14.492;2022-12-29T08:47:05;9.07;;;5.38;;
74152;SDS011;62505;46.070;14.492;2022-12-29T08:49:33;6.75;;;4.60;;
74152;SDS011;62505;46.070;14.492;2022-12-29T08:51:59;11.63;;;5.20;;
74152;SDS011;62505;46.070;14.492;2022-12-29T08:54:26;9.65;;;5.28;;
74152;SDS011;62505;46.070;14.492;2022-12-29T08:56:53;11.48;;;5.97;;
74152;SDS011;62505;46.070;14.492;2022-12-29T08:59:20;9.75;;;5.63;;
74152;SDS011;62505;46.070;14.492;2022-12-29T09:01:48;8.98;;;5.45;;
74152;SDS011;62505;46.070;14.492;2022-12-29T09:04:15;9.38;;;5.82;;
74152;SDS011;62505;46.070;14.492;2022-12-29T09:06:42;8.70;;;5.22;;
74152;SDS011;62505;46.070;14.492;2022-12-29T09:09:09;8.20;;;5.13;;
74152;SDS011;62505;46.070;14.492;2022-12-29T09:11:36;7.65;;;5.00;;
74152;SDS011;62505;46.070;14.492;2022-12-29T09:14:03;9.10;;;5.20;;
74152;SDS011;62505;46.070;14.492;2022-12-29T09:16:30;9.13;;;5.32;;
74152;SDS011;62505;46.070;14.492;2022-12-29T09:18:59;9.38;;;5.47;;
74152;SDS011;62505;46.070;14.492;2022-12-29T09:21:25;8.63;;;5.38;;
74152;SDS011;62505;46.070;14.492;2022-12-29T09:23:52;9.95;;;5.30;;
74152;SDS011;62505;46.070;14.492;2022-12-29T09:26:19;9.50;;;5.05;;
74152;SDS011;62505;46.070;14.492;2022-12-29T09:28:46;8.82;;;5.68;;
74152;SDS011;62505;46.070;14.492;2022-12-29T09:31:13;9.80;;;5.55;;
74152;SDS011;62505;46.070;14.492;2022-12-29T09:33:40;10.63;;;5.72;;
74152;SDS011;62505;46.070;14.492;2022-12-29T09:36:08;8.27;;;5.18;;
74152;SDS011;62505;46.070;14.492;2022-12-29T09:38:35;10.70;;;5.70;;
74152;SDS011;62505;46.070;14.492;2022-12-29T09:41:05;9.25;;;5.43;;
74152;SDS011;62505;46.070;14.492;2022-12-29T09:43:44;6.88;;;4.70;;
74152;SDS011;62505;46.070;14.492;2022-12-29T09:46:23;10.32;;;5.78;;
74152;SDS011;62505;46.070;14.492;2022-12-29T09:48:51;8.95;;;5.40;;
74152;SDS011;62505;46.070;14.492;2022-12-29T09:51:25;10.02;;;5.25;;
74152;SDS011;62505;46.070;14.492;2022-12-29T09:53:53;7.75;;;5.40;;
74152;SDS011;62505;46.070;14.492;2022-12-29T09:56:24;8.88;;;5.50;;
74152;SDS011;62505;46.070;14.492;2022-12-29T09:58:54;7.30;;;4.93;;
74152;SDS011;62505;46.070;14.492;2022-12-29T10:01:26;11.80;;;5.93;;
74152;SDS011;62505;46.070;14.492;2022-12-29T10:03:57;7.47;;;4.95;;
74152;SDS011;62505;46.070;14.492;2022-12-29T10:06:31;10.10;;;5.03;;
74152;SDS011;62505;46.070;14.492;2022-12-29T10:09:06;7.55;;;5.55;;
74152;SDS011;62505;46.070;14.492;2022-12-29T10:11:45;7.75;;;5.25;;
74152;SDS011;62505;46.070;14.492;2022-12-29T10:14:32;11.35;;;6.00;;
74152;SDS011;62505;46.070;14.492;2022-12-29T10:17:09;7.70;;;5.10;;
74152;SDS011;62505;46.070;14.492;2022-12-29T10:19:51;11.60;;;6.15;;
74152;SDS011;62505;46.070;14.492;2022-12-29T10:22:35;10.32;;;5.40;;
74152;SDS011;62505;46.070;14.492;2022-12-29T10:25:16;10.27;;;5.07;;
74152;SDS011;62505;46.070;14.492;2022-12-29T10:27:47;10.43;;;5.85;;
74152;SDS011;62505;46.070;14.492;2022-12-29T10:30:15;7.68;;;5.45;;
74152;SDS011;62505;46.070;14.492;2022-12-29T10:32:44;7.63;;;4.90;;
74152;SDS011;62505;46.070;14.492;2022-12-29T10:35:14;11.18;;;5.88;;
74152;SDS011;62505;46.070;14.492;2022-12-29T10:37:47;8.02;;;5.40;;
74152;SDS011;62505;46.070;14.492;2022-12-29T10:40:19;10.25;;;5.72;;
74152;SDS011;62505;46.070;14.492;2022-12-29T10:42:52;9.27;;;5.40;;
74152;SDS011;62505;46.070;14.492;2022-12-29T10:45:21;8.30;;;5.78;;
74152;SDS011;62505;46.070;14.492;2022-12-29T10:47:51;9.50;;;5.85;;
74152;SDS011;62505;46.070;14.492;2022-12-29T10:50:22;9.63;;;5.18;;
74152;SDS011;62505;46.070;14.492;2022-12-29T10:52:52;8.30;;;4.72;;
74152;SDS011;62505;46.070;14.492;2022-12-29T10:55:21;8.18;;;5.05;;
74152;SDS011;62505;46.070;14.492;2022-12-29T10:57:53;10.73;;;5.13;;
74152;SDS011;62505;46.070;14.492;2022-12-29T11:00:22;8.70;;;5.60;;
74152;SDS011;62505;46.070;14.492;2022-12-29T11:03:00;8.77;;;5.65;;
74152;SDS011;62505;46.070;14.492;2022-12-29T11:05:45;7.20;;;4.85;;
74152;SDS011;62505;46.070;14.492;2022-12-29T11:08:18;9.45;;;4.55;;
74152;SDS011;62505;46.070;14.492;2022-12-29T11:10:57;7.72;;;5.03;;
74152;SDS011;62505;46.070;14.492;2022-12-29T11:13:26;8.38;;;5.40;;
74152;SDS011;62505;46.070;14.492;2022-12-29T11:15:54;9.43;;;5.35;;
74152;SDS011;62505;46.070;14.492;2022-12-29T11:18:22;9.30;;;5.50;;
74152;SDS011;62505;46.070;14.492;2022-12-29T11:20:52;7.57;;;5.15;;
74152;SDS011;62505;46.070;14.492;2022-12-29T11:23:22;9.48;;;5.07;;
74152;SDS011;62505;46.070;14.492;2022-12-29T11:28:43;7.00;;;4.65;;
74152;SDS011;62505;46.070;14.492;2022-12-29T11:31:15;8.20;;;5.07;;
74152;SDS011;62505;46.070;14.492;2022-12-29T11:33:43;8.80;;;4.90;;
74152;SDS011;62505;46.070;14.492;2022-12-29T11:36:11;8.65;;;4.57;;
74152;SDS011;62505;46.070;14.492;2022-12-29T11:38:45;7.93;;;4.78;;
74152;SDS011;62505;46.070;14.492;2022-12-29T11:41:18;6.90;;;4.75;;
74152;SDS011;62505;46.070;14.492;2022-12-29T11:43:47;7.18;;;4.65;;
74152;SDS011;62505;46.070;14.492;2022-12-29T11:46:16;9.02;;;4.88;;
74152;SDS011;62505;46.070;14.492;2022-12-29T11:48:45;8.15;;;5.05;;
74152;SDS011;62505;46.070;14.492;2022-12-29T11:51:13;8.77;;;4.85;;
74152;SDS011;62505;46.070;14.492;2022-12-29T11:53:49;10.30;;;5.25;;
74152;SDS011;62505;46.070;14.492;2022-12-29T11:56:19;7.00;;;4.82;;
74152;SDS011;62505;46.070;14.492;2022-12-29T11:58:48;6.63;;;4.60;;
74152;SDS011;62505;46.070;14.492;2022-12-29T12:01:19;7.72;;;5.10;;
74152;SDS011;62505;46.070;14.492;2022-12-29T12:03:51;7.68;;;4.43;;
74152;SDS011;62505;46.070;14.492;2022-12-29T12:06:26;8.93;;;4.30;;
74152;SDS011;62505;46.070;14.492;2022-12-29T12:08:57;7.43;;;5.03;;
74152;SDS011;62505;46.070;14.492;2022-12-29T12:11:29;7.18;;;4.90;;
74152;SDS011;62505;46.070;14.492;2022-12-29T12:14:04;7.00;;;4.63;;
74152;SDS011;62505;46.070;14.492;2022-12-29T12:16:39;6.78;;;4.82;;
74152;SDS011;62505;46.070;14.492;2022-12-29T12:19:10;8.30;;;5.13;;
74152;SDS011;62505;46.070;14.492;2022-12-29T12:21:43;9.88;;;5.10;;
74152;SDS011;62505;46.070;14.492;2022-12-29T12:24:20;10.65;;;6.55;;
74152;SDS011;62505;46.070;14.492;2022-12-29T12:27:02;12.70;;;6.28;;
74152;SDS011;62505;46.070;14.492;2022-12-29T12:29:37;11.15;;;5.63;;
74152;SDS011;62505;46.070;14.492;2022-12-29T12:32:11;11.93;;;6.30;;
74152;SDS011;62505;46.070;14.492;2022-12-29T12:34:43;8.82;;;5.32;;
74152;SDS011;62505;46.070;14.492;2022-12-29T12:37:17;9.20;;;5.50;;
74152;SDS011;62505;46.070;14.492;2022-12-29T12:40:11;7.38;;;5.53;;
74152;SDS011;62505;46.070;14.492;2022-12-29T12:42:55;7.80;;;5.25;;
74152;SDS011;62505;46.070;14.492;2022-12-29T12:45:37;9.82;;;6.05;;
74152;SDS011;62505;46.070;14.492;2022-12-29T12:48:19;8.60;;;5.28;;
74152;SDS011;62505;46.070;14.492;2022-12-29T12:51:02;9.68;;;5.30;;
74152;SDS011;62505;46.070;14.492;2022-12-29T12:56:35;8.05;;;5.55;;
74152;SDS011;62505;46.070;14.492;2022-12-29T12:59:30;7.82;;;5.30;;
74152;SDS011;62505;46.070;14.492;2022-12-29T13:02:13;9.15;;;5.80;;
74152;SDS011;62505;46.070;14.492;2022-12-29T13:07:42;9.13;;;5.47;;
74152;SDS011;62505;46.070;14.492;2022-12-29T13:10:19;8.65;;;5.10;;
74152;SDS011;62505;46.070;14.492;2022-12-29T13:13:00;7.65;;;5.15;;
74152;SDS011;62505;46.070;14.492;2022-12-29T13:15:43;7.90;;;5.40;;
74152;SDS011;62505;46.070;14.492;2022-12-29T13:18:17;8.40;;;5.80;;
74152;SDS011;62505;46.070;14.492;2022-12-29T13:20:52;8.48;;;5.47;;
74152;SDS011;62505;46.070;14.492;2022-12-29T13:23:25;7.80;;;5.65;;
74152;SDS011;62505;46.070;14.492;2022-12-29T13:26:02;9.30;;;5.57;;
74152;SDS011;62505;46.070;14.492;2022-12-29T13:28:37;9.93;;;6.20;;
74152;SDS011;62505;46.070;14.492;2022-12-29T13:31:24;8.07;;;5.47;;
74152;SDS011;62505;46.070;14.492;2022-12-29T13:34:00;7.03;;;5.03;;
74152;SDS011;62505;46.070;14.492;2022-12-29T13:36:33;6.95;;;5.15;;
74152;SDS011;62505;46.070;14.492;2022-12-29T13:39:05;7.97;;;5.40;;
74152;SDS011;62505;46.070;14.492;2022-12-29T13:41:38;7.57;;;5.40;;
74152;SDS011;62505;46.070;14.492;2022-12-29T13:44:11;9.02;;;5.28;;
74152;SDS011;62505;46.070;14.492;2022-12-29T13:46:43;8.45;;;5.20;;
74152;SDS011;62505;46.070;14.492;2022-12-29T13:49:13;9.43;;;5.22;;
74152;SDS011;62505;46.070;14.492;2022-12-29T13:51:44;9.43;;;5.75;;
74152;SDS011;62505;46.070;14.492;2022-12-29T13:54:18;8.85;;;5.35;;
74152;SDS011;62505;46.070;14.492;2022-12-29T13:56:52;8.18;;;5.20;;
74152;SDS011;62505;46.070;14.492;2022-12-29T13:59:37;9.20;;;5.20;;
74152;SDS011;62505;46.070;14.492;2022-12-29T14:02:16;7.10;;;5.03;;
74152;SDS011;62505;46.070;14.492;2022-12-29T14:04:57;9.45;;;5.97;;
74152;SDS011;62505;46.070;14.492;2022-12-29T14:07:25;7.20;;;4.55;;
74152;SDS011;62505;46.070;14.492;2022-12-29T14:09:53;6.93;;;4.97;;
74152;SDS011;62505;46.070;14.492;2022-12-29T14:12:22;7.38;;;5.28;;
74152;SDS011;62505;46.070;14.492;2022-12-29T14:18:02;6.05;;;4.57;;
74152;SDS011;62505;46.070;14.492;2022-12-29T14:20:36;11.82;;;5.50;;
74152;SDS011;62505;46.070;14.492;2022-12-29T14:23:15;14.02;;;6.05;;
74152;SDS011;62505;46.070;14.492;2022-12-29T14:28:43;11.82;;;5.95;;
74152;SDS011;62505;46.070;14.492;2022-12-29T14:37:22;13.88;;;6.53;;
74152;SDS011;62505;46.070;14.492;2022-12-29T14:40:02;9.88;;;6.43;;
74152;SDS011;62505;46.070;14.492;2022-12-29T14:42:31;13.48;;;5.90;;
74152;SDS011;62505;46.070;14.492;2022-12-29T14:45:00;9.18;;;5.63;;
74152;SDS011;62505;46.070;14.492;2022-12-29T14:47:32;11.70;;;6.50;;
74152;SDS011;62505;46.070;14.492;2022-12-29T14:50:05;12.45;;;5.85;;
74152;SDS011;62505;46.070;14.492;2022-12-29T14:52:39;11.98;;;6.05;;
74152;SDS011;62505;46.070;14.492;2022-12-29T14:55:32;12.52;;;6.78;;
74152;SDS011;62505;46.070;14.492;2022-12-29T14:58:05;10.65;;;6.47;;
74152;SDS011;62505;46.070;14.492;2022-12-29T15:00:37;10.38;;;5.82;;
74152;SDS011;62505;46.070;14.492;2022-12-29T15:03:07;11.60;;;5.53;;
74152;SDS011;62505;46.070;14.492;2022-12-29T15:05:42;11.27;;;6.35;;
74152;SDS011;62505;46.070;14.492;2022-12-29T15:08:11;10.02;;;5.88;;
74152;SDS011;62505;46.070;14.492;2022-12-29T15:10:42;10.00;;;5.85;;
74152;SDS011;62505;46.070;14.492;2022-12-29T15:13:15;9.07;;;5.97;;
74152;SDS011;62505;46.070;14.492;2022-12-29T15:15:43;9.38;;;5.53;;
74152;SDS011;62505;46.070;14.492;2022-12-29T15:18:24;8.93;;;5.85;;
74152;SDS011;62505;46.070;14.492;2022-12-29T15:20:53;9.82;;;5.78;;